sensor_id;sensor_type;location;lat;lon;timestamp;P1;durP1;ratioP1;P2;durP2;ratioP2
75930;SDS011;64609;47.052;15.462;2023-03-01T00:01:24;29.52;;;17.98;;
75930;SDS011;64609;47.052;15.462;2023-03-01T00:03:51;27.48;;;17.67;;
75930;SDS011;64609;47.052;15.462;2023-03-01T00:06:18;29.08;;;18.25;;
75930;SDS011;64609;47.052;15.462;2023-03-01T00:08:44;27.40;;;17.73;;
75930;SDS011;64609;47.052;15.462;2023-03-01T00:13:42;24.70;;;16.30;;
75930;SDS011;64609;47.052;15.462;2023-03-01T00:16:10;27.55;;;16.98;;
75930;SDS011;64609;47.052;15.462;2023-03-01T00:18:38;29.77;;;17.40;;
75930;SDS011;64609;47.052;15.462;2023-03-01T00:21:04;25.25;;;16.40;;
75930;SDS011;64609;47.052;15.462;2023-03-01T00:23:30;24.73;;;16.15;;
75930;SDS011;64609;47.052;15.462;2023-03-01T00:25:56;28.83;;;17.48;;
75930;SDS011;64609;47.052;15.462;2023-03-01T00:28:22;25.67;;;16.70;;
75930;SDS011;64609;47.052;15.462;2023-03-01T00:30:48;26.70;;;16.58;;
75930;SDS011;64609;47.052;15.462;2023-03-01T00:33:14;27.42;;;17.20;;
75930;SDS011;64609;47.052;15.462;2023-03-01T00:35:40;30.95;;;17.90;;
75930;SDS011;64609;47.052;15.462;2023-03-01T00:38:05;29.38;;;17.60;;
75930;SDS011;64609;47.052;15.462;2023-03-01T00:40:32;33.88;;;18.50;;
75930;SDS011;64609;47.052;15.462;2023-03-01T00:43:00;28.98;;;18.10;;
75930;SDS011;64609;47.052;15.462;2023-03-01T00:45:26;28.63;;;17.65;;
75930;SDS011;64609;47.052;15.462;2023-03-01T00:47:52;29.55;;;18.15;;
75930;SDS011;64609;47.052;15.462;2023-03-01T00:50:18;29.30;;;19.02;;
75930;SDS011;64609;47.052;15.462;2023-03-01T00:52:44;30.83;;;19.13;;
75930;SDS011;64609;47.052;15.462;2023-03-01T00:55:10;30.30;;;18.25;;
75930;SDS011;64609;47.052;15.462;2023-03-01T00:57:36;27.58;;;18.65;;
75930;SDS011;64609;47.052;15.462;2023-03-01T01:00:03;33.30;;;18.70;;
75930;SDS011;64609;47.052;15.462;2023-03-01T01:02:31;32.00;;;18.45;;
75930;SDS011;64609;47.052;15.462;2023-03-01T01:04:58;31.67;;;18.58;;
75930;SDS011;64609;47.052;15.462;2023-03-01T01:07:24;29.50;;;18.40;;
75930;SDS011;64609;47.052;15.462;2023-03-01T01:09:49;26.13;;;17.90;;
75930;SDS011;64609;47.052;15.462;2023-03-01T01:12:15;29.35;;;18.77;;
75930;SDS011;64609;47.052;15.462;2023-03-01T01:14:41;31.95;;;19.40;;
75930;SDS011;64609;47.052;15.462;2023-03-01T01:17:06;32.47;;;20.15;;
75930;SDS011;64609;47.052;15.462;2023-03-01T01:19:32;35.85;;;19.98;;
75930;SDS011;64609;47.052;15.462;2023-03-01T01:21:57;32.03;;;20.23;;
75930;SDS011;64609;47.052;15.462;2023-03-01T01:24:23;32.35;;;20.63;;
75930;SDS011;64609;47.052;15.462;2023-03-01T01:26:49;31.17;;;19.70;;
75930;SDS011;64609;47.052;15.462;2023-03-01T01:29:14;30.02;;;19.02;;
75930;SDS011;64609;47.052;15.462;2023-03-01T01:31:41;30.95;;;19.92;;
75930;SDS011;64609;47.052;15.462;2023-03-01T01:34:10;31.30;;;19.17;;
75930;SDS011;64609;47.052;15.462;2023-03-01T01:36:39;28.98;;;19.23;;
75930;SDS011;64609;47.052;15.462;2023-03-01T01:39:04;34.33;;;18.67;;
75930;SDS011;64609;47.052;15.462;2023-03-01T01:41:30;31.88;;;18.63;;
75930;SDS011;64609;47.052;15.462;2023-03-01T01:46:41;28.98;;;18.67;;
75930;SDS011;64609;47.052;15.462;2023-03-01T01:49:14;30.15;;;18.23;;
75930;SDS011;64609;47.052;15.462;2023-03-01T01:51:46;29.95;;;18.42;;
75930;SDS011;64609;47.052;15.462;2023-03-01T01:54:15;30.48;;;18.15;;
75930;SDS011;64609;47.052;15.462;2023-03-01T01:56:46;29.17;;;17.83;;
75930;SDS011;64609;47.052;15.462;2023-03-01T01:59:16;25.85;;;17.52;;
75930;SDS011;64609;47.052;15.462;2023-03-01T02:01:42;29.90;;;17.73;;
75930;SDS011;64609;47.052;15.462;2023-03-01T02:04:08;30.38;;;18.10;;
75930;SDS011;64609;47.052;15.462;2023-03-01T02:06:37;29.13;;;18.65;;
75930;SDS011;64609;47.052;15.462;2023-03-01T02:09:08;32.33;;;18.48;;
75930;SDS011;64609;47.052;15.462;2023-03-01T02:11:39;27.42;;;17.48;;
75930;SDS011;64609;47.052;15.462;2023-03-01T02:14:05;29.55;;;18.13;;
75930;SDS011;64609;47.052;15.462;2023-03-01T02:16:31;27.92;;;17.80;;
75930;SDS011;64609;47.052;15.462;2023-03-01T02:18:58;28.20;;;18.48;;
75930;SDS011;64609;47.052;15.462;2023-03-01T02:24:04;28.10;;;17.05;;
75930;SDS011;64609;47.052;15.462;2023-03-01T02:26:55;28.95;;;17.73;;
75930;SDS011;64609;47.052;15.462;2023-03-01T02:29:22;26.42;;;17.42;;
75930;SDS011;64609;47.052;15.462;2023-03-01T02:31:49;26.95;;;16.55;;
75930;SDS011;64609;47.052;15.462;2023-03-01T02:34:20;23.73;;;16.95;;
75930;SDS011;64609;47.052;15.462;2023-03-01T02:37:08;25.52;;;16.52;;
75930;SDS011;64609;47.052;15.462;2023-03-01T02:39:39;29.08;;;16.83;;
75930;SDS011;64609;47.052;15.462;2023-03-01T02:42:10;26.17;;;16.70;;
75930;SDS011;64609;47.052;15.462;2023-03-01T02:44:39;22.95;;;16.10;;
75930;SDS011;64609;47.052;15.462;2023-03-01T02:47:05;25.73;;;16.70;;
75930;SDS011;64609;47.052;15.462;2023-03-01T02:49:32;25.10;;;16.98;;
75930;SDS011;64609;47.052;15.462;2023-03-01T02:55:10;24.15;;;15.95;;
75930;SDS011;64609;47.052;15.462;2023-03-01T02:57:39;28.33;;;15.57;;
75930;SDS011;64609;47.052;15.462;2023-03-01T03:00:09;25.67;;;15.80;;
75930;SDS011;64609;47.052;15.462;2023-03-01T03:02:44;23.27;;;15.40;;
75930;SDS011;64609;47.052;15.462;2023-03-01T03:05:16;24.17;;;16.67;;
75930;SDS011;64609;47.052;15.462;2023-03-01T03:07:44;25.73;;;16.30;;
75930;SDS011;64609;47.052;15.462;2023-03-01T03:10:13;23.63;;;15.50;;
75930;SDS011;64609;47.052;15.462;2023-03-01T03:13:01;24.55;;;15.95;;
75930;SDS011;64609;47.052;15.462;2023-03-01T03:15:29;25.67;;;15.50;;
75930;SDS011;64609;47.052;15.462;2023-03-01T03:17:55;23.60;;;14.88;;
75930;SDS011;64609;47.052;15.462;2023-03-01T03:20:25;21.95;;;14.60;;
75930;SDS011;64609;47.052;15.462;2023-03-01T03:22:53;26.13;;;16.65;;
75930;SDS011;64609;47.052;15.462;2023-03-01T03:25:20;24.60;;;15.65;;
75930;SDS011;64609;47.052;15.462;2023-03-01T03:27:48;28.38;;;15.75;;
75930;SDS011;64609;47.052;15.462;2023-03-01T03:30:15;25.17;;;16.40;;
75930;SDS011;64609;47.052;15.462;2023-03-01T03:32:43;24.17;;;16.08;;
75930;SDS011;64609;47.052;15.462;2023-03-01T03:35:17;24.00;;;15.13;;
75930;SDS011;64609;47.052;15.462;2023-03-01T03:37:44;25.65;;;16.27;;
75930;SDS011;64609;47.052;15.462;2023-03-01T03:40:29;22.45;;;15.55;;
75930;SDS011;64609;47.052;15.462;2023-03-01T03:42:57;25.30;;;15.70;;
75930;SDS011;64609;47.052;15.462;2023-03-01T03:45:23;24.60;;;15.52;;
75930;SDS011;64609;47.052;15.462;2023-03-01T03:47:48;23.13;;;14.80;;
75930;SDS011;64609;47.052;15.462;2023-03-01T03:50:14;24.30;;;15.63;;
75930;SDS011;64609;47.052;15.462;2023-03-01T03:52:41;25.63;;;15.40;;
75930;SDS011;64609;47.052;15.462;2023-03-01T03:55:08;24.75;;;15.52;;
75930;SDS011;64609;47.052;15.462;2023-03-01T03:57:45;24.05;;;15.25;;
75930;SDS011;64609;47.052;15.462;2023-03-01T04:00:17;22.80;;;14.73;;
75930;SDS011;64609;47.052;15.462;2023-03-01T04:02:45;25.05;;;15.98;;
75930;SDS011;64609;47.052;15.462;2023-03-01T04:05:13;22.52;;;15.30;;
75930;SDS011;64609;47.052;15.462;2023-03-01T04:07:40;25.77;;;15.07;;
75930;SDS011;64609;47.052;15.462;2023-03-01T04:10:08;23.17;;;15.50;;
75930;SDS011;64609;47.052;15.462;2023-03-01T04:12:35;24.15;;;15.15;;
75930;SDS011;64609;47.052;15.462;2023-03-01T04:15:05;27.55;;;15.70;;
75930;SDS011;64609;47.052;15.462;2023-03-01T04:17:41;28.52;;;16.10;;
75930;SDS011;64609;47.052;15.462;2023-03-01T04:20:11;26.25;;;17.67;;
75930;SDS011;64609;47.052;15.462;2023-03-01T04:22:42;28.27;;;17.35;;
75930;SDS011;64609;47.052;15.462;2023-03-01T04:25:08;28.20;;;16.70;;
75930;SDS011;64609;47.052;15.462;2023-03-01T04:27:35;30.13;;;18.52;;
75930;SDS011;64609;47.052;15.462;2023-03-01T04:30:01;27.55;;;17.67;;
75930;SDS011;64609;47.052;15.462;2023-03-01T04:32:30;31.05;;;18.05;;
75930;SDS011;64609;47.052;15.462;2023-03-01T04:34:56;35.13;;;20.73;;
75930;SDS011;64609;47.052;15.462;2023-03-01T04:37:22;30.05;;;18.85;;
75930;SDS011;64609;47.052;15.462;2023-03-01T04:39:49;27.88;;;17.85;;
75930;SDS011;64609;47.052;15.462;2023-03-01T04:42:15;26.05;;;16.95;;
75930;SDS011;64609;47.052;15.462;2023-03-01T04:44:41;29.90;;;17.77;;
75930;SDS011;64609;47.052;15.462;2023-03-01T04:47:08;27.35;;;18.58;;
75930;SDS011;64609;47.052;15.462;2023-03-01T04:49:33;30.75;;;17.48;;
75930;SDS011;64609;47.052;15.462;2023-03-01T04:51:59;26.48;;;17.17;;
75930;SDS011;64609;47.052;15.462;2023-03-01T04:54:32;23.85;;;15.95;;
75930;SDS011;64609;47.052;15.462;2023-03-01T04:56:59;26.85;;;15.23;;
75930;SDS011;64609;47.052;15.462;2023-03-01T04:59:26;29.55;;;16.95;;
75930;SDS011;64609;47.052;15.462;2023-03-01T05:01:52;23.73;;;16.08;;
75930;SDS011;64609;47.052;15.462;2023-03-01T05:04:22;25.00;;;15.52;;
75930;SDS011;64609;47.052;15.462;2023-03-01T05:06:48;27.30;;;16.17;;
75930;SDS011;64609;47.052;15.462;2023-03-01T05:09:14;31.92;;;16.38;;
75930;SDS011;64609;47.052;15.462;2023-03-01T05:11:40;26.13;;;16.30;;
75930;SDS011;64609;47.052;15.462;2023-03-01T05:14:06;26.08;;;15.90;;
75930;SDS011;64609;47.052;15.462;2023-03-01T05:16:33;26.27;;;15.93;;
75930;SDS011;64609;47.052;15.462;2023-03-01T05:18:59;27.98;;;17.27;;
75930;SDS011;64609;47.052;15.462;2023-03-01T05:21:25;25.10;;;16.48;;
75930;SDS011;64609;47.052;15.462;2023-03-01T05:23:51;28.23;;;17.48;;
75930;SDS011;64609;47.052;15.462;2023-03-01T05:26:19;26.05;;;16.85;;
75930;SDS011;64609;47.052;15.462;2023-03-01T05:28:46;24.80;;;16.67;;
75930;SDS011;64609;47.052;15.462;2023-03-01T05:31:12;28.05;;;17.02;;
75930;SDS011;64609;47.052;15.462;2023-03-01T05:33:41;24.98;;;16.15;;
75930;SDS011;64609;47.052;15.462;2023-03-01T05:36:07;24.63;;;16.25;;
75930;SDS011;64609;47.052;15.462;2023-03-01T05:38:34;27.38;;;16.90;;
75930;SDS011;64609;47.052;15.462;2023-03-01T05:41:01;29.17;;;16.92;;
75930;SDS011;64609;47.052;15.462;2023-03-01T05:43:29;25.02;;;15.95;;
75930;SDS011;64609;47.052;15.462;2023-03-01T05:45:58;32.35;;;16.80;;
75930;SDS011;64609;47.052;15.462;2023-03-01T05:48:25;25.05;;;16.65;;
75930;SDS011;64609;47.052;15.462;2023-03-01T05:50:50;26.00;;;16.25;;
75930;SDS011;64609;47.052;15.462;2023-03-01T05:53:17;25.63;;;16.58;;
75930;SDS011;64609;47.052;15.462;2023-03-01T05:55:46;29.00;;;17.25;;
75930;SDS011;64609;47.052;15.462;2023-03-01T05:58:16;31.00;;;16.58;;
75930;SDS011;64609;47.052;15.462;2023-03-01T06:00:44;34.78;;;18.00;;
75930;SDS011;64609;47.052;15.462;2023-03-01T06:03:12;35.42;;;22.98;;
75930;SDS011;64609;47.052;15.462;2023-03-01T06:05:39;40.20;;;24.58;;
75930;SDS011;64609;47.052;15.462;2023-03-01T06:08:05;35.90;;;21.35;;
75930;SDS011;64609;47.052;15.462;2023-03-01T06:10:31;31.90;;;17.40;;
75930;SDS011;64609;47.052;15.462;2023-03-01T06:12:57;31.55;;;18.83;;
75930;SDS011;64609;47.052;15.462;2023-03-01T06:15:24;31.98;;;19.67;;
75930;SDS011;64609;47.052;15.462;2023-03-01T06:17:49;39.50;;;20.80;;
75930;SDS011;64609;47.052;15.462;2023-03-01T06:20:20;33.95;;;19.88;;
75930;SDS011;64609;47.052;15.462;2023-03-01T06:22:47;38.70;;;22.00;;
75930;SDS011;64609;47.052;15.462;2023-03-01T06:25:15;39.17;;;23.63;;
75930;SDS011;64609;47.052;15.462;2023-03-01T06:27:42;33.90;;;19.67;;
75930;SDS011;64609;47.052;15.462;2023-03-01T06:30:08;32.38;;;19.17;;
75930;SDS011;64609;47.052;15.462;2023-03-01T06:32:35;32.88;;;20.58;;
75930;SDS011;64609;47.052;15.462;2023-03-01T06:35:02;30.67;;;18.85;;
75930;SDS011;64609;47.052;15.462;2023-03-01T06:37:28;33.85;;;19.67;;
75930;SDS011;64609;47.052;15.462;2023-03-01T06:39:54;33.28;;;20.38;;
75930;SDS011;64609;47.052;15.462;2023-03-01T06:42:20;34.33;;;20.48;;
75930;SDS011;64609;47.052;15.462;2023-03-01T06:44:45;30.67;;;19.85;;
75930;SDS011;64609;47.052;15.462;2023-03-01T06:47:11;29.67;;;18.20;;
75930;SDS011;64609;47.052;15.462;2023-03-01T06:49:37;32.67;;;18.67;;
75930;SDS011;64609;47.052;15.462;2023-03-01T06:52:03;32.40;;;18.38;;
75930;SDS011;64609;47.052;15.462;2023-03-01T06:54:28;30.05;;;18.83;;
75930;SDS011;64609;47.052;15.462;2023-03-01T06:56:54;33.45;;;18.10;;
75930;SDS011;64609;47.052;15.462;2023-03-01T06:59:20;32.22;;;17.88;;
75930;SDS011;64609;47.052;15.462;2023-03-01T07:01:46;29.02;;;17.83;;
75930;SDS011;64609;47.052;15.462;2023-03-01T07:04:12;30.70;;;19.25;;
75930;SDS011;64609;47.052;15.462;2023-03-01T07:06:38;33.58;;;18.35;;
75930;SDS011;64609;47.052;15.462;2023-03-01T07:09:04;35.10;;;19.05;;
75930;SDS011;64609;47.052;15.462;2023-03-01T07:11:29;33.83;;;18.75;;
75930;SDS011;64609;47.052;15.462;2023-03-01T07:13:55;31.20;;;17.83;;
75930;SDS011;64609;47.052;15.462;2023-03-01T07:16:21;31.70;;;18.65;;
75930;SDS011;64609;47.052;15.462;2023-03-01T07:18:47;30.80;;;18.10;;
75930;SDS011;64609;47.052;15.462;2023-03-01T07:21:13;35.92;;;18.35;;
75930;SDS011;64609;47.052;15.462;2023-03-01T07:23:40;33.13;;;19.33;;
75930;SDS011;64609;47.052;15.462;2023-03-01T07:26:06;29.95;;;19.00;;
75930;SDS011;64609;47.052;15.462;2023-03-01T07:28:31;32.80;;;16.35;;
75930;SDS011;64609;47.052;15.462;2023-03-01T07:31:04;27.17;;;16.20;;
75930;SDS011;64609;47.052;15.462;2023-03-01T07:33:30;23.23;;;14.98;;
75930;SDS011;64609;47.052;15.462;2023-03-01T07:35:57;21.85;;;15.52;;
75930;SDS011;64609;47.052;15.462;2023-03-01T07:38:24;25.92;;;14.40;;
75930;SDS011;64609;47.052;15.462;2023-03-01T07:40:49;21.38;;;14.27;;
75930;SDS011;64609;47.052;15.462;2023-03-01T07:43:15;22.67;;;15.70;;
75930;SDS011;64609;47.052;15.462;2023-03-01T07:45:41;25.67;;;15.70;;
75930;SDS011;64609;47.052;15.462;2023-03-01T07:48:06;29.30;;;14.93;;
75930;SDS011;64609;47.052;15.462;2023-03-01T07:50:32;25.83;;;14.40;;
75930;SDS011;64609;47.052;15.462;2023-03-01T07:52:57;22.48;;;15.13;;
75930;SDS011;64609;47.052;15.462;2023-03-01T07:55:23;22.35;;;15.23;;
75930;SDS011;64609;47.052;15.462;2023-03-01T07:57:49;26.52;;;14.85;;
75930;SDS011;64609;47.052;15.462;2023-03-01T08:00:14;23.55;;;14.52;;
75930;SDS011;64609;47.052;15.462;2023-03-01T08:02:40;23.13;;;14.20;;
75930;SDS011;64609;47.052;15.462;2023-03-01T08:05:07;22.38;;;14.85;;
75930;SDS011;64609;47.052;15.462;2023-03-01T08:07:34;27.35;;;16.98;;
75930;SDS011;64609;47.052;15.462;2023-03-01T08:09:59;22.92;;;14.23;;
75930;SDS011;64609;47.052;15.462;2023-03-01T08:12:25;23.50;;;14.48;;
75930;SDS011;64609;47.052;15.462;2023-03-01T08:14:53;23.45;;;14.27;;
75930;SDS011;64609;47.052;15.462;2023-03-01T08:17:18;29.30;;;15.30;;
75930;SDS011;64609;47.052;15.462;2023-03-01T08:19:44;20.83;;;14.93;;
75930;SDS011;64609;47.052;15.462;2023-03-01T08:22:10;21.75;;;14.30;;
75930;SDS011;64609;47.052;15.462;2023-03-01T08:24:35;21.45;;;14.32;;
75930;SDS011;64609;47.052;15.462;2023-03-01T08:27:01;22.33;;;14.68;;
75930;SDS011;64609;47.052;15.462;2023-03-01T08:29:27;21.17;;;13.90;;
75930;SDS011;64609;47.052;15.462;2023-03-01T08:31:55;24.25;;;14.10;;
75930;SDS011;64609;47.052;15.462;2023-03-01T08:34:21;20.13;;;13.40;;
75930;SDS011;64609;47.052;15.462;2023-03-01T08:36:47;24.58;;;14.50;;
75930;SDS011;64609;47.052;15.462;2023-03-01T08:39:14;21.92;;;15.07;;
75930;SDS011;64609;47.052;15.462;2023-03-01T08:41:40;20.15;;;14.57;;
75930;SDS011;64609;47.052;15.462;2023-03-01T08:44:07;30.40;;;15.40;;
75930;SDS011;64609;47.052;15.462;2023-03-01T08:46:38;25.25;;;15.88;;
75930;SDS011;64609;47.052;15.462;2023-03-01T08:49:06;29.17;;;16.45;;
75930;SDS011;64609;47.052;15.462;2023-03-01T08:51:42;22.08;;;14.75;;
75930;SDS011;64609;47.052;15.462;2023-03-01T08:54:13;24.80;;;14.75;;
75930;SDS011;64609;47.052;15.462;2023-03-01T08:56:43;28.75;;;15.15;;
75930;SDS011;64609;47.052;15.462;2023-03-01T08:59:09;23.35;;;14.70;;
75930;SDS011;64609;47.052;15.462;2023-03-01T09:01:36;26.15;;;14.98;;
75930;SDS011;64609;47.052;15.462;2023-03-01T09:04:02;22.42;;;15.52;;
75930;SDS011;64609;47.052;15.462;2023-03-01T09:06:29;23.10;;;15.18;;
75930;SDS011;64609;47.052;15.462;2023-03-01T09:08:58;22.98;;;14.20;;
75930;SDS011;64609;47.052;15.462;2023-03-01T09:11:23;23.05;;;14.82;;
75930;SDS011;64609;47.052;15.462;2023-03-01T09:13:49;22.90;;;14.65;;
75930;SDS011;64609;47.052;15.462;2023-03-01T09:16:16;22.08;;;15.48;;
75930;SDS011;64609;47.052;15.462;2023-03-01T09:18:44;25.17;;;16.25;;
75930;SDS011;64609;47.052;15.462;2023-03-01T09:21:11;23.15;;;15.68;;
75930;SDS011;64609;47.052;15.462;2023-03-01T09:23:40;23.58;;;16.10;;
75930;SDS011;64609;47.052;15.462;2023-03-01T09:26:08;24.40;;;15.63;;
75930;SDS011;64609;47.052;15.462;2023-03-01T09:28:35;25.50;;;15.75;;
75930;SDS011;64609;47.052;15.462;2023-03-01T09:31:02;27.15;;;17.35;;
75930;SDS011;64609;47.052;15.462;2023-03-01T09:33:29;26.23;;;16.38;;
75930;SDS011;64609;47.052;15.462;2023-03-01T09:36:00;27.95;;;16.02;;
75930;SDS011;64609;47.052;15.462;2023-03-01T09:38:30;25.70;;;16.58;;
75930;SDS011;64609;47.052;15.462;2023-03-01T09:40:56;25.25;;;17.23;;
75930;SDS011;64609;47.052;15.462;2023-03-01T09:45:58;35.45;;;18.10;;
75930;SDS011;64609;47.052;15.462;2023-03-01T09:48:29;28.73;;;17.83;;
75930;SDS011;64609;47.052;15.462;2023-03-01T09:51:08;28.13;;;16.92;;
75930;SDS011;64609;47.052;15.462;2023-03-01T09:53:42;27.35;;;16.55;;
75930;SDS011;64609;47.052;15.462;2023-03-01T09:56:19;29.90;;;17.85;;
75930;SDS011;64609;47.052;15.462;2023-03-01T10:04:27;25.02;;;17.38;;
75930;SDS011;64609;47.052;15.462;2023-03-01T10:09:51;29.02;;;18.08;;
75930;SDS011;64609;47.052;15.462;2023-03-01T10:12:18;32.42;;;17.23;;
75930;SDS011;64609;47.052;15.462;2023-03-01T10:19:46;30.90;;;18.42;;
75930;SDS011;64609;47.052;15.462;2023-03-01T10:22:16;28.13;;;18.77;;
75930;SDS011;64609;47.052;15.462;2023-03-01T10:24:53;30.10;;;18.02;;
75930;SDS011;64609;47.052;15.462;2023-03-01T10:27:24;34.33;;;19.27;;
75930;SDS011;64609;47.052;15.462;2023-03-01T10:30:05;31.30;;;18.77;;
75930;SDS011;64609;47.052;15.462;2023-03-01T10:32:36;32.10;;;18.23;;
75930;SDS011;64609;47.052;15.462;2023-03-01T10:35:14;31.80;;;19.00;;
75930;SDS011;64609;47.052;15.462;2023-03-01T10:38:04;30.80;;;18.30;;
75930;SDS011;64609;47.052;15.462;2023-03-01T10:40:33;30.65;;;18.67;;
75930;SDS011;64609;47.052;15.462;2023-03-01T10:43:03;31.70;;;19.58;;
75930;SDS011;64609;47.052;15.462;2023-03-01T10:48:02;34.75;;;18.17;;
75930;SDS011;64609;47.052;15.462;2023-03-01T10:50:46;32.90;;;19.13;;
75930;SDS011;64609;47.052;15.462;2023-03-01T10:56:08;35.35;;;18.90;;
75930;SDS011;64609;47.052;15.462;2023-03-01T10:58:36;31.17;;;18.45;;
75930;SDS011;64609;47.052;15.462;2023-03-01T11:01:03;34.63;;;19.83;;
75930;SDS011;64609;47.052;15.462;2023-03-01T11:03:32;32.10;;;19.00;;
75930;SDS011;64609;47.052;15.462;2023-03-01T11:08:30;35.33;;;18.67;;
75930;SDS011;64609;47.052;15.462;2023-03-01T11:14:02;34.42;;;18.65;;
75930;SDS011;64609;47.052;15.462;2023-03-01T11:16:38;36.33;;;18.65;;
75930;SDS011;64609;47.052;15.462;2023-03-01T11:21:39;31.98;;;19.00;;
75930;SDS011;64609;47.052;15.462;2023-03-01T11:24:17;34.10;;;19.75;;
75930;SDS011;64609;47.052;15.462;2023-03-01T11:26:45;32.88;;;20.05;;
75930;SDS011;64609;47.052;15.462;2023-03-01T11:29:38;35.65;;;19.00;;
75930;SDS011;64609;47.052;15.462;2023-03-01T11:32:07;35.22;;;20.55;;
75930;SDS011;64609;47.052;15.462;2023-03-01T11:35:36;33.67;;;19.75;;
75930;SDS011;64609;47.052;15.462;2023-03-01T11:37:40;32.72;;;19.35;;
75930;SDS011;64609;47.052;15.462;2023-03-01T11:40:13;37.75;;;20.02;;
75930;SDS011;64609;47.052;15.462;2023-03-01T12:02:59;28.63;;;18.02;;
75930;SDS011;64609;47.052;15.462;2023-03-01T12:08:38;31.50;;;18.33;;
75930;SDS011;64609;47.052;15.462;2023-03-01T12:22:01;29.38;;;18.05;;
75930;SDS011;64609;47.052;15.462;2023-03-01T12:33:00;31.42;;;19.08;;
75930;SDS011;64609;47.052;15.462;2023-03-01T12:35:40;31.58;;;17.17;;
75930;SDS011;64609;47.052;15.462;2023-03-01T12:55:33;33.15;;;17.73;;
75930;SDS011;64609;47.052;15.462;2023-03-01T13:03:54;30.85;;;17.40;;
75930;SDS011;64609;47.052;15.462;2023-03-01T13:06:08;32.47;;;17.05;;
75930;SDS011;64609;47.052;15.462;2023-03-01T13:08:48;30.10;;;17.35;;
75930;SDS011;64609;47.052;15.462;2023-03-01T13:11:22;30.23;;;16.75;;
75930;SDS011;64609;47.052;15.462;2023-03-01T13:13:49;29.95;;;16.85;;
75930;SDS011;64609;47.052;15.462;2023-03-01T13:19:13;26.35;;;16.20;;
75930;SDS011;64609;47.052;15.462;2023-03-01T13:21:48;28.95;;;16.75;;
75930;SDS011;64609;47.052;15.462;2023-03-01T13:29:43;26.33;;;15.57;;
75930;SDS011;64609;47.052;15.462;2023-03-01T13:32:21;28.63;;;16.27;;
75930;SDS011;64609;47.052;15.462;2023-03-01T13:34:57;28.15;;;15.70;;
75930;SDS011;64609;47.052;15.462;2023-03-01T13:37:24;29.10;;;16.25;;
75930;SDS011;64609;47.052;15.462;2023-03-01T13:39:51;24.85;;;15.43;;
75930;SDS011;64609;47.052;15.462;2023-03-01T13:45:21;26.70;;;15.40;;
75930;SDS011;64609;47.052;15.462;2023-03-01T13:47:49;28.38;;;15.65;;
75930;SDS011;64609;47.052;15.462;2023-03-01T13:50:23;26.40;;;14.48;;
75930;SDS011;64609;47.052;15.462;2023-03-01T13:52:53;28.50;;;15.13;;
75930;SDS011;64609;47.052;15.462;2023-03-01T13:57:54;30.52;;;15.15;;
75930;SDS011;64609;47.052;15.462;2023-03-01T14:00:41;21.05;;;14.93;;
75930;SDS011;64609;47.052;15.462;2023-03-01T14:08:43;21.75;;;15.45;;
75930;SDS011;64609;47.052;15.462;2023-03-01T14:13:51;27.67;;;16.23;;
75930;SDS011;64609;47.052;15.462;2023-03-01T14:19:25;28.50;;;14.30;;
75930;SDS011;64609;47.052;15.462;2023-03-01T14:22:10;28.15;;;14.90;;
75930;SDS011;64609;47.052;15.462;2023-03-01T14:24:53;23.23;;;14.57;;
75930;SDS011;64609;47.052;15.462;2023-03-01T14:27:20;24.13;;;14.73;;
75930;SDS011;64609;47.052;15.462;2023-03-01T14:29:59;25.08;;;14.38;;
75930;SDS011;64609;47.052;15.462;2023-03-01T14:32:28;24.38;;;14.85;;
75930;SDS011;64609;47.052;15.462;2023-03-01T14:34:55;23.27;;;14.27;;
75930;SDS011;64609;47.052;15.462;2023-03-01T14:39:56;23.30;;;14.07;;
75930;SDS011;64609;47.052;15.462;2023-03-01T14:42:23;21.10;;;14.70;;
75930;SDS011;64609;47.052;15.462;2023-03-01T14:44:52;25.45;;;13.90;;
75930;SDS011;64609;47.052;15.462;2023-03-01T14:47:26;21.95;;;13.93;;
75930;SDS011;64609;47.052;15.462;2023-03-01T14:49:56;20.02;;;13.13;;
75930;SDS011;64609;47.052;15.462;2023-03-01T14:52:34;23.30;;;13.48;;
75930;SDS011;64609;47.052;15.462;2023-03-01T14:55:12;27.13;;;14.43;;
75930;SDS011;64609;47.052;15.462;2023-03-01T14:57:43;21.67;;;14.00;;
75930;SDS011;64609;47.052;15.462;2023-03-01T15:00:13;23.02;;;14.75;;
75930;SDS011;64609;47.052;15.462;2023-03-01T15:02:53;24.42;;;13.93;;
75930;SDS011;64609;47.052;15.462;2023-03-01T15:05:31;22.98;;;14.13;;
75930;SDS011;64609;47.052;15.462;2023-03-01T15:07:58;24.15;;;13.60;;
75930;SDS011;64609;47.052;15.462;2023-03-01T15:10:28;27.20;;;14.27;;
75930;SDS011;64609;47.052;15.462;2023-03-01T15:12:56;22.40;;;14.83;;
75930;SDS011;64609;47.052;15.462;2023-03-01T15:15:48;27.13;;;15.15;;
75930;SDS011;64609;47.052;15.462;2023-03-01T15:18:22;24.17;;;14.75;;
75930;SDS011;64609;47.052;15.462;2023-03-01T15:20:52;25.77;;;14.95;;
75930;SDS011;64609;47.052;15.462;2023-03-01T15:23:23;24.85;;;14.95;;
75930;SDS011;64609;47.052;15.462;2023-03-01T15:25:52;21.73;;;14.63;;
75930;SDS011;64609;47.052;15.462;2023-03-01T15:28:23;21.40;;;13.82;;
75930;SDS011;64609;47.052;15.462;2023-03-01T15:30:58;22.90;;;14.23;;
75930;SDS011;64609;47.052;15.462;2023-03-01T15:33:44;25.27;;;14.57;;
75930;SDS011;64609;47.052;15.462;2023-03-01T15:39:05;27.85;;;14.25;;
75930;SDS011;64609;47.052;15.462;2023-03-01T15:41:50;22.95;;;14.13;;
75930;SDS011;64609;47.052;15.462;2023-03-01T15:44:17;23.85;;;15.18;;
75930;SDS011;64609;47.052;15.462;2023-03-01T15:46:49;30.13;;;14.85;;
75930;SDS011;64609;47.052;15.462;2023-03-01T15:49:35;26.33;;;16.52;;
75930;SDS011;64609;47.052;15.462;2023-03-01T15:52:01;54.78;;;34.42;;
75930;SDS011;64609;47.052;15.462;2023-03-01T15:54:27;80.75;;;60.00;;
75930;SDS011;64609;47.052;15.462;2023-03-01T15:56:54;34.88;;;20.75;;
75930;SDS011;64609;47.052;15.462;2023-03-01T15:59:20;34.30;;;17.33;;
75930;SDS011;64609;47.052;15.462;2023-03-01T16:01:47;24.58;;;15.90;;
75930;SDS011;64609;47.052;15.462;2023-03-01T16:04:14;29.33;;;18.00;;
75930;SDS011;64609;47.052;15.462;2023-03-01T16:06:46;26.80;;;15.57;;
75930;SDS011;64609;47.052;15.462;2023-03-01T16:09:20;27.17;;;16.63;;
75930;SDS011;64609;47.052;15.462;2023-03-01T16:11:50;25.17;;;16.20;;
75930;SDS011;64609;47.052;15.462;2023-03-01T16:14:16;32.35;;;17.88;;
75930;SDS011;64609;47.052;15.462;2023-03-01T16:16:43;30.23;;;16.20;;
75930;SDS011;64609;47.052;15.462;2023-03-01T16:19:09;45.25;;;18.70;;
75930;SDS011;64609;47.052;15.462;2023-03-01T16:21:35;35.40;;;21.48;;
75930;SDS011;64609;47.052;15.462;2023-03-01T16:24:02;35.25;;;21.27;;
75930;SDS011;64609;47.052;15.462;2023-03-01T16:26:28;31.70;;;19.88;;
75930;SDS011;64609;47.052;15.462;2023-03-01T16:28:54;29.27;;;18.20;;
75930;SDS011;64609;47.052;15.462;2023-03-01T16:31:21;35.67;;;19.40;;
75930;SDS011;64609;47.052;15.462;2023-03-01T16:33:49;30.58;;;17.95;;
75930;SDS011;64609;47.052;15.462;2023-03-01T16:36:17;29.63;;;18.38;;